ADDS METAR Data INFO
IDs: Format: Raw Decoded Include TAF

Data at: 0100 UTC 22 Oct 2017

KGRY 220100Z AUTO 12017KT 8SM SCT015 27/25 A3000 RMK A01
KGRY 220035Z AUTO 13017KT 9SM FEW018 FEW030 FEW035 27/24 A2999 RMK A01
KGRY 220020Z AUTO 13017KT 10SM FEW018 SCT032 SCT049 27/24 A2999 RMK A01
KGRY 212355Z AUTO 12015KT 8SM FEW005 SCT015 BKN034 27/24 A2999 RMK A01
KGRY 212340Z AUTO 12016KT 9SM SCT016 SCT026 BKN033 27/24 A2998 RMK A01
KGRY 212315Z AUTO 13015KT 9SM FEW018 FEW100 27/24 A2998 RMK A01
KGRY 212300Z AUTO 12015KT 9SM SCT017 SCT026 SCT034 27/25 A2999 RMK A01
KGRY 212235Z AUTO 12015KT 10SM FEW014 FEW025 SCT085 27/25 A2998 RMK A01
KGRY 212215Z AUTO 14012KT 10SM BKN085 27/24 A2997 RMK A01
KGRY 212200Z AUTO 14013KT 10SM FEW085 27/24 A2997 RMK A01
KGRY 212130Z AUTO 14014KT 10SM FEW028 27/24 A2997 RMK A01
KGRY 212115Z AUTO 13012KT 10SM FEW028 27/24 A2998 RMK A01
KGRY 212055Z AUTO 13012KT 10SM CLR 27/24 A2998 RMK A01
KGRY 212040Z AUTO 13011KT 10SM CLR 27/24 A2998 RMK A01
KGRY 212020Z AUTO 13011KT 10SM CLR 27/24 A2997 RMK A01
KGRY 211955Z AUTO 14010KT 10SM CLR 27/24 A2997 RMK A01
KGRY 211935Z AUTO 15013KT 10SM CLR 27/23 A2998 RMK A01
KGRY 211915Z AUTO 14015KT FEW014 FEW023 27/25 A2998 RMK A01
KGRY 211855Z AUTO 12015KT 8SM FEW014 SCT023 27/25 A2999 RMK A01
KGRY 211840Z AUTO 13013KT 10SM FEW018 28/24 A3000 RMK A01
KGRY 211815Z AUTO 13012KT 10SM FEW018 28/24 A3001 RMK A01
KGRY 211800Z AUTO 14013KT 10SM FEW018 28/24 A3001 RMK A01
KGRY 211735Z AUTO 13013KT 10SM CLR 28/24 A3002 RMK A01
KGRY 211715Z AUTO 15012KT 10SM CLR 28/24 A3003 RMK A01
KGRY 211700Z AUTO 14012KT 10SM CLR 28/24 A3003 RMK A01
KGRY 211635Z AUTO 14014KT 10SM CLR 28/23 A3004 RMK A01
KGRY 211600Z AUTO 14013KT 10SM CLR 28/24 A3003 RMK A01
KGRY 211555Z AUTO 14012KT 10SM CLR 28/24 A3003 RMK A01
KGRY 211540Z AUTO 15013KT 10SM SCT060 SCT070 28/24 A3003 RMK A01
KGRY 211515Z AUTO 15008KT 9SM BKN060 BKN075 BKN090 27/24 A3004 RMK A01
KGRY 211500Z AUTO 16008KT 7SM FEW015 SCT034 BKN060 26/24 A3003 RMK A01 P0002
KGRY 211345Z AUTO 13014KT 10SM FEW020 FEW029 FEW034 28/24 A3001 RMK A01
KGRY 211335Z AUTO 14015KT 9SM FEW023 FEW028 SCT037 28/24 A3001 RMK A01
KGRY 211320Z AUTO 13014KT 9SM FEW018 SCT024 BKN110 28/24 A3001 RMK A01
KGRY 211255Z AUTO 13014KT 9SM SCT019 BKN026 OVC110 27/24 A3000 RMK A01
KGRY 211240Z AUTO 17011G16KT 7SM BKN019 OVC025 26/24 A3000 RMK A01
KGRY 211215Z AUTO 15015KT 9SM SCT023 BKN028 OVC050 27/24 A2998 RMK A01
KGRY 211155Z AUTO 15018KT 7SM FEW004 BKN024 OVC050 27/24 A2998 RMK A01
KGRY 211140Z AUTO 14019KT 9SM SCT024 BKN043 OVC055 27/23 A2998 RMK A01
KGRY 211115Z AUTO 14021KT 9SM FEW023 SCT038 BKN046 27/23 A2997 RMK A01
KGRY 211100Z AUTO 14020KT 10SM FEW024 SCT030 BKN036 28/23 A2996 RMK A01
KGRY 211035Z AUTO 14020KT 9SM FEW024 SCT030 BKN037 27/23 A2996 RMK A01
KGRY 211015Z AUTO 14021KT 9SM SCT024 BKN030 OVC045 27/23 A2995 RMK A01
KGRY 211000Z AUTO 15019G24KT 9SM BKN023 BKN028 OVC044 27/23 A2995 RMK A01
KGRY 210935Z AUTO 14022KT 9SM SCT021 SCT025 BKN033 27/23 A2993 RMK A01
KGRY 210920Z AUTO 14022KT 9SM SCT021 SCT027 SCT041 27/23 A2993 RMK A01
KGRY 210855Z AUTO 13022KT 9SM SCT023 SCT031 SCT049 27/23 A2993 RMK A01
KGRY 210840Z AUTO 14023KT 9SM FEW026 FEW055 BKN110 27/23 A2993 RMK A01
KGRY 210815Z AUTO 14022KT 8SM SCT024 BKN040 OVC110 27/23 A2994 RMK A01
KGRY 210800Z AUTO 14021KT 8SM SCT023 BKN029 BKN040 27/23 A2996 RMK A01
KGRY 210735Z AUTO 14019KT 9SM BKN024 BKN042 BKN075 27/23 A2997 RMK A01
KGRY 210720Z AUTO 15010KT 5SM BR FEW005 BKN024 OVC044 25/23 A3000 RMK A01
KGRY 210700Z AUTO 17009KT 4SM BR SCT005 BKN030 OVC050 25/23 A3000 RMK A01 P0049
KGRY 210600Z AUTO 09020KT 3SM BR SCT011 BKN027 OVC043 25/23 A3002 RMK A01
KGRY 210555Z AUTO 09019KT 3SM BR FEW013 BKN027 OVC044 25/23 A3003 RMK A01
KGRY 210540Z AUTO 08021KT 3SM HZ BKN027 BKN036 OVC046 25/23 A3002 RMK A01
KGRY 210515Z AUTO 10021KT 9SM FEW018 BKN026 OVC038 26/23 A3003 RMK A01
KGRY 210500Z AUTO 12014KT 8SM FEW018 BKN026 OVC055 26/24 A3004 RMK A01 P0012
KGRY 210435Z AUTO 17009G14KT 5SM HZ FEW004 SCT036 BKN050 25/22 A3004 RMK A01
KGRY 210420Z AUTO 20012G22KT 3/4SM BR OVC004 24/22 A3003 RMK A01
KGRY 210355Z AUTO 17020G28KT 4SM HZ SCT014 BKN024 OVC075 25/22 A3002 RMK A01
KGRY 210340Z AUTO 10016KT 6SM HZ FEW022 SCT040 OVC075 27/23 A3003 RMK A01
KGRY 210315Z AUTO 10017KT 9SM SCT023 BKN060 OVC075 27/23 A3002 RMK A01
KGRY 210300Z AUTO 09017KT 9SM FEW023 FEW028 OVC070 27/23 A3002 RMK A01
KGRY 210240Z AUTO 10018KT 9SM FEW038 BKN070 OVC095 27/23 A3002 RMK A01
KGRY 210215Z AUTO 10019KT 9SM OVC065 27/23 A3001 RMK A01
KGRY 210200Z AUTO 11017KT 9SM FEW026 FEW034 OVC065 28/23 A3001 RMK A01
KGRY 210135Z AUTO 08013KT 9SM FEW042 FEW050 OVC060 27/23 A3001 RMK A01
KGRY 210120Z AUTO 09013KT 9SM OVC055 27/23 A3000 RMK A01
KGRY 210055Z AUTO 10018KT 9SM BKN055 OVC070 27/22 A2999 RMK A01
KGRY 210035Z AUTO 10017KT 10SM BKN055 OVC070 27/21 A2999 RMK A01
KGRY 210020Z AUTO 11014KT 10SM OVC055 27/22 A3000 RMK A01
KGRY 202355Z AUTO 09010KT 9SM BKN046 OVC060 27/23 A3000 RMK A01
KGRY 202340Z AUTO 10011KT 10SM FEW040 FEW045 BKN060 27/23 A3000 RMK A01
KGRY 202315Z AUTO 11019KT 9SM SCT025 27/22 A2999 RMK A01
KGRY 202300Z AUTO 12013KT 10SM FEW023 27/23 A2999 RMK A01
KGRY 202235Z AUTO 12015KT 10SM CLR 27/22 A2999 RMK A01
KGRY 202215Z AUTO 13016KT 10SM CLR 27/22 A2999 RMK A01
KGRY 202155Z AUTO 12014KT 10SM CLR 27/23 A2999 RMK A01
KGRY 202135Z AUTO 12013KT 9SM CLR 27/23 A2999 RMK A01
KGRY 202115Z AUTO 12016KT 10SM FEW023 FEW032 FEW060 27/22 A2999 RMK A01
KGRY 202055Z AUTO 11014KT 10SM SCT023 SCT028 SCT034 27/23 A2999 RMK A01
KGRY 202035Z AUTO 10014KT 9SM FEW026 FEW040 FEW055 27/22 A3000 RMK A01
KGRY 202015Z AUTO 09011KT 10SM FEW025 SCT047 SCT060 27/22 A3000 RMK A01
KGRY 201955Z AUTO 08011KT 10SM FEW023 SCT027 SCT035 27/23 A3001 RMK A01